sensor_id;sensor_type;location;lat;lon;timestamp;P1;durP1;ratioP1;P2;durP2;ratioP2
73266;SDS011;61495;53.400;7.608;2022-11-20T00:00:25;11.30;;;6.32;;
73266;SDS011;61495;53.400;7.608;2022-11-20T00:02:51;11.55;;;6.45;;
73266;SDS011;61495;53.400;7.608;2022-11-20T00:05:16;12.30;;;7.25;;
73266;SDS011;61495;53.400;7.608;2022-11-20T00:07:42;15.05;;;7.25;;
73266;SDS011;61495;53.400;7.608;2022-11-20T00:10:07;13.30;;;7.13;;
73266;SDS011;61495;53.400;7.608;2022-11-20T00:12:33;10.73;;;5.75;;
73266;SDS011;61495;53.400;7.608;2022-11-20T00:14:59;12.65;;;6.15;;
73266;SDS011;61495;53.400;7.608;2022-11-20T00:17:24;11.60;;;6.25;;
73266;SDS011;61495;53.400;7.608;2022-11-20T00:19:50;14.00;;;6.78;;
73266;SDS011;61495;53.400;7.608;2022-11-20T00:22:15;12.93;;;6.63;;
73266;SDS011;61495;53.400;7.608;2022-11-20T00:24:41;12.23;;;6.55;;
73266;SDS011;61495;53.400;7.608;2022-11-20T00:27:06;12.55;;;6.05;;
73266;SDS011;61495;53.400;7.608;2022-11-20T00:29:31;11.60;;;6.28;;
73266;SDS011;61495;53.400;7.608;2022-11-20T00:31:57;13.13;;;6.50;;
73266;SDS011;61495;53.400;7.608;2022-11-20T00:34:22;12.30;;;6.45;;
73266;SDS011;61495;53.400;7.608;2022-11-20T00:36:47;14.30;;;6.90;;
73266;SDS011;61495;53.400;7.608;2022-11-20T00:39:13;16.42;;;7.97;;
73266;SDS011;61495;53.400;7.608;2022-11-20T00:41:38;16.42;;;7.97;;
73266;SDS011;61495;53.400;7.608;2022-11-20T00:44:04;16.23;;;7.47;;
73266;SDS011;61495;53.400;7.608;2022-11-20T00:46:29;15.00;;;7.72;;
73266;SDS011;61495;53.400;7.608;2022-11-20T00:48:55;14.32;;;7.43;;
73266;SDS011;61495;53.400;7.608;2022-11-20T00:51:21;13.00;;;7.13;;
73266;SDS011;61495;53.400;7.608;2022-11-20T00:53:48;14.52;;;7.47;;
73266;SDS011;61495;53.400;7.608;2022-11-20T00:58:41;12.82;;;6.15;;
73266;SDS011;61495;53.400;7.608;2022-11-20T01:01:24;10.63;;;6.20;;
73266;SDS011;61495;53.400;7.608;2022-11-20T01:03:51;12.05;;;6.30;;
73266;SDS011;61495;53.400;7.608;2022-11-20T01:06:22;11.40;;;6.53;;
73266;SDS011;61495;53.400;7.608;2022-11-20T01:08:53;12.73;;;6.68;;
73266;SDS011;61495;53.400;7.608;2022-11-20T01:11:21;11.63;;;6.80;;
73266;SDS011;61495;53.400;7.608;2022-11-20T01:13:50;11.20;;;5.60;;
73266;SDS011;61495;53.400;7.608;2022-11-20T01:16:18;10.98;;;5.50;;
73266;SDS011;61495;53.400;7.608;2022-11-20T01:18:45;12.85;;;6.63;;
73266;SDS011;61495;53.400;7.608;2022-11-20T01:21:23;12.07;;;6.15;;
73266;SDS011;61495;53.400;7.608;2022-11-20T01:26:17;10.77;;;5.30;;
73266;SDS011;61495;53.400;7.608;2022-11-20T01:28:45;12.45;;;6.05;;
73266;SDS011;61495;53.400;7.608;2022-11-20T01:33:36;10.57;;;4.93;;
73266;SDS011;61495;53.400;7.608;2022-11-20T01:36:05;13.00;;;5.63;;
73266;SDS011;61495;53.400;7.608;2022-11-20T01:38:31;9.85;;;5.05;;
73266;SDS011;61495;53.400;7.608;2022-11-20T01:43:22;9.23;;;4.87;;
73266;SDS011;61495;53.400;7.608;2022-11-20T01:45:59;10.38;;;5.28;;
73266;SDS011;61495;53.400;7.608;2022-11-20T01:51:33;10.48;;;5.63;;
73266;SDS011;61495;53.400;7.608;2022-11-20T01:54:05;9.35;;;4.82;;
73266;SDS011;61495;53.400;7.608;2022-11-20T01:56:34;11.00;;;5.20;;
73266;SDS011;61495;53.400;7.608;2022-11-20T01:59:03;12.27;;;5.43;;
73266;SDS011;61495;53.400;7.608;2022-11-20T02:01:32;8.90;;;4.60;;
73266;SDS011;61495;53.400;7.608;2022-11-20T02:03:58;12.27;;;6.22;;
73266;SDS011;61495;53.400;7.608;2022-11-20T02:06:26;11.00;;;5.28;;
73266;SDS011;61495;53.400;7.608;2022-11-20T02:09:05;9.73;;;5.07;;
73266;SDS011;61495;53.400;7.608;2022-11-20T02:11:31;9.93;;;4.63;;
73266;SDS011;61495;53.400;7.608;2022-11-20T02:13:57;8.98;;;4.82;;
73266;SDS011;61495;53.400;7.608;2022-11-20T02:16:25;9.95;;;4.50;;
73266;SDS011;61495;53.400;7.608;2022-11-20T02:18:54;10.45;;;5.75;;
73266;SDS011;61495;53.400;7.608;2022-11-20T02:21:27;9.75;;;4.97;;
73266;SDS011;61495;53.400;7.608;2022-11-20T02:24:09;8.82;;;4.65;;
73266;SDS011;61495;53.400;7.608;2022-11-20T02:26:52;10.82;;;4.95;;
73266;SDS011;61495;53.400;7.608;2022-11-20T02:29:26;10.45;;;5.55;;
73266;SDS011;61495;53.400;7.608;2022-11-20T02:31:56;9.25;;;5.05;;
73266;SDS011;61495;53.400;7.608;2022-11-20T02:34:23;11.85;;;5.60;;
73266;SDS011;61495;53.400;7.608;2022-11-20T02:39:17;9.30;;;5.13;;
73266;SDS011;61495;53.400;7.608;2022-11-20T02:41:44;9.25;;;4.97;;
73266;SDS011;61495;53.400;7.608;2022-11-20T02:44:09;10.65;;;5.10;;
73266;SDS011;61495;53.400;7.608;2022-11-20T02:46:35;11.68;;;5.07;;
73266;SDS011;61495;53.400;7.608;2022-11-20T02:49:01;9.20;;;5.00;;
73266;SDS011;61495;53.400;7.608;2022-11-20T02:51:28;8.88;;;4.82;;
73266;SDS011;61495;53.400;7.608;2022-11-20T02:53:54;9.88;;;5.32;;
73266;SDS011;61495;53.400;7.608;2022-11-20T02:56:19;11.98;;;5.97;;
73266;SDS011;61495;53.400;7.608;2022-11-20T02:58:45;9.05;;;5.07;;
73266;SDS011;61495;53.400;7.608;2022-11-20T03:01:10;11.68;;;5.50;;
73266;SDS011;61495;53.400;7.608;2022-11-20T03:03:36;9.20;;;4.93;;
73266;SDS011;61495;53.400;7.608;2022-11-20T03:06:01;10.77;;;5.28;;
73266;SDS011;61495;53.400;7.608;2022-11-20T03:08:27;9.38;;;4.50;;
73266;SDS011;61495;53.400;7.608;2022-11-20T03:10:53;9.52;;;4.72;;
73266;SDS011;61495;53.400;7.608;2022-11-20T03:13:18;9.00;;;4.05;;
73266;SDS011;61495;53.400;7.608;2022-11-20T03:15:44;8.38;;;3.90;;
73266;SDS011;61495;53.400;7.608;2022-11-20T03:18:09;10.35;;;5.10;;
73266;SDS011;61495;53.400;7.608;2022-11-20T03:20:34;9.30;;;4.25;;
73266;SDS011;61495;53.400;7.608;2022-11-20T03:23:00;9.23;;;4.30;;
73266;SDS011;61495;53.400;7.608;2022-11-20T03:25:26;8.13;;;3.83;;
73266;SDS011;61495;53.400;7.608;2022-11-20T03:27:51;9.52;;;4.65;;
73266;SDS011;61495;53.400;7.608;2022-11-20T03:30:17;9.13;;;4.00;;
73266;SDS011;61495;53.400;7.608;2022-11-20T03:32:42;8.25;;;3.85;;
73266;SDS011;61495;53.400;7.608;2022-11-20T03:35:08;7.82;;;3.90;;
73266;SDS011;61495;53.400;7.608;2022-11-20T03:37:34;8.25;;;4.25;;
73266;SDS011;61495;53.400;7.608;2022-11-20T03:40:00;7.25;;;3.58;;
73266;SDS011;61495;53.400;7.608;2022-11-20T03:42:25;6.85;;;3.70;;
73266;SDS011;61495;53.400;7.608;2022-11-20T03:45:10;6.30;;;3.33;;
73266;SDS011;61495;53.400;7.608;2022-11-20T03:47:36;7.88;;;3.35;;
73266;SDS011;61495;53.400;7.608;2022-11-20T03:50:01;7.65;;;3.45;;
73266;SDS011;61495;53.400;7.608;2022-11-20T03:52:27;6.40;;;3.17;;
73266;SDS011;61495;53.400;7.608;2022-11-20T03:54:52;9.73;;;4.03;;
73266;SDS011;61495;53.400;7.608;2022-11-20T03:57:18;8.52;;;4.07;;
73266;SDS011;61495;53.400;7.608;2022-11-20T03:59:43;8.40;;;4.18;;
73266;SDS011;61495;53.400;7.608;2022-11-20T04:02:08;9.10;;;4.22;;
73266;SDS011;61495;53.400;7.608;2022-11-20T04:04:34;9.93;;;4.13;;
73266;SDS011;61495;53.400;7.608;2022-11-20T04:06:59;8.10;;;4.25;;
73266;SDS011;61495;53.400;7.608;2022-11-20T04:09:24;7.30;;;3.78;;
73266;SDS011;61495;53.400;7.608;2022-11-20T04:11:50;6.78;;;3.17;;
73266;SDS011;61495;53.400;7.608;2022-11-20T04:14:16;8.50;;;3.75;;
73266;SDS011;61495;53.400;7.608;2022-11-20T04:16:42;7.93;;;4.10;;
73266;SDS011;61495;53.400;7.608;2022-11-20T04:19:12;8.10;;;3.70;;
73266;SDS011;61495;53.400;7.608;2022-11-20T04:21:39;8.85;;;4.60;;
73266;SDS011;61495;53.400;7.608;2022-11-20T04:24:05;7.18;;;3.63;;
73266;SDS011;61495;53.400;7.608;2022-11-20T04:26:32;8.85;;;3.90;;
73266;SDS011;61495;53.400;7.608;2022-11-20T04:28:58;8.80;;;4.35;;
73266;SDS011;61495;53.400;7.608;2022-11-20T04:31:25;7.70;;;3.72;;
73266;SDS011;61495;53.400;7.608;2022-11-20T04:33:52;11.52;;;4.07;;
73266;SDS011;61495;53.400;7.608;2022-11-20T04:36:24;6.72;;;3.78;;
73266;SDS011;61495;53.400;7.608;2022-11-20T04:38:52;7.00;;;3.00;;
73266;SDS011;61495;53.400;7.608;2022-11-20T04:41:20;8.00;;;3.95;;
73266;SDS011;61495;53.400;7.608;2022-11-20T04:43:47;6.60;;;3.60;;
73266;SDS011;61495;53.400;7.608;2022-11-20T04:46:13;9.80;;;4.22;;
73266;SDS011;61495;53.400;7.608;2022-11-20T04:48:39;7.53;;;3.25;;
73266;SDS011;61495;53.400;7.608;2022-11-20T04:51:04;7.35;;;3.83;;
73266;SDS011;61495;53.400;7.608;2022-11-20T04:53:30;6.43;;;3.15;;
73266;SDS011;61495;53.400;7.608;2022-11-20T04:55:59;8.32;;;3.33;;
73266;SDS011;61495;53.400;7.608;2022-11-20T04:58:32;10.18;;;4.13;;
73266;SDS011;61495;53.400;7.608;2022-11-20T05:01:05;6.80;;;3.35;;
73266;SDS011;61495;53.400;7.608;2022-11-20T05:03:38;7.82;;;3.67;;
73266;SDS011;61495;53.400;7.608;2022-11-20T05:06:08;7.13;;;3.30;;
73266;SDS011;61495;53.400;7.608;2022-11-20T05:08:40;7.53;;;3.20;;
73266;SDS011;61495;53.400;7.608;2022-11-20T05:11:07;6.45;;;3.28;;
73266;SDS011;61495;53.400;7.608;2022-11-20T05:13:34;7.25;;;3.10;;
73266;SDS011;61495;53.400;7.608;2022-11-20T05:16:00;7.45;;;3.63;;
73266;SDS011;61495;53.400;7.608;2022-11-20T05:18:27;8.25;;;3.50;;
73266;SDS011;61495;53.400;7.608;2022-11-20T05:20:57;7.10;;;3.47;;
73266;SDS011;61495;53.400;7.608;2022-11-20T05:23:23;7.40;;;3.53;;
73266;SDS011;61495;53.400;7.608;2022-11-20T05:25:51;6.32;;;3.67;;
73266;SDS011;61495;53.400;7.608;2022-11-20T05:28:18;9.43;;;3.97;;
73266;SDS011;61495;53.400;7.608;2022-11-20T05:30:44;6.13;;;3.13;;
73266;SDS011;61495;53.400;7.608;2022-11-20T05:33:09;6.72;;;3.47;;
73266;SDS011;61495;53.400;7.608;2022-11-20T05:35:35;6.25;;;3.08;;
73266;SDS011;61495;53.400;7.608;2022-11-20T05:38:00;7.10;;;2.70;;
73266;SDS011;61495;53.400;7.608;2022-11-20T05:40:26;9.07;;;3.10;;
73266;SDS011;61495;53.400;7.608;2022-11-20T05:42:51;6.60;;;2.80;;
73266;SDS011;61495;53.400;7.608;2022-11-20T05:45:17;6.30;;;2.80;;
73266;SDS011;61495;53.400;7.608;2022-11-20T05:47:43;7.15;;;3.33;;
73266;SDS011;61495;53.400;7.608;2022-11-20T05:50:08;5.53;;;2.65;;
73266;SDS011;61495;53.400;7.608;2022-11-20T05:52:33;8.55;;;3.25;;
73266;SDS011;61495;53.400;7.608;2022-11-20T05:54:59;6.53;;;2.78;;
73266;SDS011;61495;53.400;7.608;2022-11-20T05:57:24;6.03;;;2.65;;
73266;SDS011;61495;53.400;7.608;2022-11-20T05:59:50;6.20;;;3.08;;
73266;SDS011;61495;53.400;7.608;2022-11-20T06:02:15;5.63;;;2.67;;
73266;SDS011;61495;53.400;7.608;2022-11-20T06:04:40;6.15;;;2.85;;
73266;SDS011;61495;53.400;7.608;2022-11-20T06:07:06;7.32;;;3.10;;
73266;SDS011;61495;53.400;7.608;2022-11-20T06:11:57;5.57;;;2.42;;
73266;SDS011;61495;53.400;7.608;2022-11-20T06:14:23;6.47;;;2.75;;
73266;SDS011;61495;53.400;7.608;2022-11-20T06:16:48;6.18;;;2.65;;
73266;SDS011;61495;53.400;7.608;2022-11-20T06:19:13;6.22;;;2.63;;
73266;SDS011;61495;53.400;7.608;2022-11-20T06:21:39;6.85;;;2.92;;
73266;SDS011;61495;53.400;7.608;2022-11-20T06:24:05;6.93;;;3.20;;
73266;SDS011;61495;53.400;7.608;2022-11-20T06:26:31;8.45;;;3.45;;
73266;SDS011;61495;53.400;7.608;2022-11-20T06:28:56;7.40;;;2.85;;
73266;SDS011;61495;53.400;7.608;2022-11-20T06:31:22;6.22;;;3.10;;
73266;SDS011;61495;53.400;7.608;2022-11-20T06:33:49;9.98;;;3.13;;
73266;SDS011;61495;53.400;7.608;2022-11-20T06:36:16;7.32;;;3.08;;
73266;SDS011;61495;53.400;7.608;2022-11-20T06:38:43;8.90;;;3.00;;
73266;SDS011;61495;53.400;7.608;2022-11-20T06:41:10;6.80;;;3.13;;
73266;SDS011;61495;53.400;7.608;2022-11-20T06:43:40;7.75;;;3.42;;
73266;SDS011;61495;53.400;7.608;2022-11-20T06:46:06;6.20;;;2.97;;
73266;SDS011;61495;53.400;7.608;2022-11-20T06:48:33;7.22;;;3.78;;
73266;SDS011;61495;53.400;7.608;2022-11-20T06:53:24;5.43;;;2.30;;
73266;SDS011;61495;53.400;7.608;2022-11-20T06:55:50;6.55;;;3.33;;
73266;SDS011;61495;53.400;7.608;2022-11-20T06:58:16;7.18;;;2.70;;
73266;SDS011;61495;53.400;7.608;2022-11-20T07:00:42;5.90;;;2.78;;
73266;SDS011;61495;53.400;7.608;2022-11-20T07:05:35;5.10;;;2.60;;
73266;SDS011;61495;53.400;7.608;2022-11-20T07:08:01;6.82;;;2.88;;
73266;SDS011;61495;53.400;7.608;2022-11-20T07:10:27;5.70;;;2.78;;
73266;SDS011;61495;53.400;7.608;2022-11-20T07:12:53;6.60;;;3.47;;
73266;SDS011;61495;53.400;7.608;2022-11-20T07:15:19;7.57;;;3.10;;
73266;SDS011;61495;53.400;7.608;2022-11-20T07:17:46;6.00;;;2.80;;
73266;SDS011;61495;53.400;7.608;2022-11-20T07:20:12;5.53;;;2.50;;
73266;SDS011;61495;53.400;7.608;2022-11-20T07:22:38;7.07;;;3.20;;
73266;SDS011;61495;53.400;7.608;2022-11-20T07:25:04;6.60;;;2.80;;
73266;SDS011;61495;53.400;7.608;2022-11-20T07:27:30;6.20;;;2.80;;
73266;SDS011;61495;53.400;7.608;2022-11-20T07:29:55;7.97;;;2.80;;
73266;SDS011;61495;53.400;7.608;2022-11-20T07:32:21;6.00;;;2.75;;
73266;SDS011;61495;53.400;7.608;2022-11-20T07:34:47;4.78;;;2.70;;
73266;SDS011;61495;53.400;7.608;2022-11-20T07:37:12;6.35;;;3.85;;
73266;SDS011;61495;53.400;7.608;2022-11-20T07:39:38;6.07;;;2.90;;
73266;SDS011;61495;53.400;7.608;2022-11-20T07:42:03;6.85;;;3.20;;
73266;SDS011;61495;53.400;7.608;2022-11-20T07:44:29;5.85;;;2.72;;
73266;SDS011;61495;53.400;7.608;2022-11-20T07:46:54;7.20;;;2.70;;
73266;SDS011;61495;53.400;7.608;2022-11-20T07:49:20;7.03;;;2.70;;
73266;SDS011;61495;53.400;7.608;2022-11-20T07:51:45;6.18;;;2.78;;
73266;SDS011;61495;53.400;7.608;2022-11-20T07:54:11;6.40;;;2.90;;
73266;SDS011;61495;53.400;7.608;2022-11-20T07:56:36;7.00;;;3.13;;
73266;SDS011;61495;53.400;7.608;2022-11-20T07:59:01;8.98;;;3.40;;
73266;SDS011;61495;53.400;7.608;2022-11-20T08:01:28;6.53;;;3.40;;
73266;SDS011;61495;53.400;7.608;2022-11-20T08:03:53;7.45;;;3.17;;
73266;SDS011;61495;53.400;7.608;2022-11-20T08:06:19;8.90;;;3.95;;
73266;SDS011;61495;53.400;7.608;2022-11-20T08:08:45;9.93;;;4.93;;
73266;SDS011;61495;53.400;7.608;2022-11-20T08:11:10;11.75;;;4.97;;
73266;SDS011;61495;53.400;7.608;2022-11-20T08:13:54;8.43;;;4.65;;
73266;SDS011;61495;53.400;7.608;2022-11-20T08:16:39;8.95;;;4.35;;
73266;SDS011;61495;53.400;7.608;2022-11-20T08:19:04;10.35;;;5.05;;
73266;SDS011;61495;53.400;7.608;2022-11-20T08:21:30;10.95;;;5.10;;
73266;SDS011;61495;53.400;7.608;2022-11-20T08:23:56;10.82;;;6.07;;
73266;SDS011;61495;53.400;7.608;2022-11-20T08:26:23;13.27;;;5.72;;
73266;SDS011;61495;53.400;7.608;2022-11-20T08:28:49;11.95;;;5.93;;
73266;SDS011;61495;53.400;7.608;2022-11-20T08:31:19;9.90;;;5.20;;
73266;SDS011;61495;53.400;7.608;2022-11-20T08:33:44;11.52;;;5.65;;
73266;SDS011;61495;53.400;7.608;2022-11-20T08:36:10;13.05;;;5.68;;
73266;SDS011;61495;53.400;7.608;2022-11-20T08:38:35;10.82;;;5.45;;
73266;SDS011;61495;53.400;7.608;2022-11-20T08:41:01;10.23;;;5.15;;
73266;SDS011;61495;53.400;7.608;2022-11-20T08:43:47;11.38;;;5.43;;
73266;SDS011;61495;53.400;7.608;2022-11-20T08:46:13;12.02;;;5.90;;
73266;SDS011;61495;53.400;7.608;2022-11-20T08:48:38;10.48;;;5.22;;
73266;SDS011;61495;53.400;7.608;2022-11-20T08:51:04;12.07;;;5.75;;
73266;SDS011;61495;53.400;7.608;2022-11-20T08:53:29;11.32;;;5.47;;
73266;SDS011;61495;53.400;7.608;2022-11-20T08:55:56;10.18;;;5.88;;
73266;SDS011;61495;53.400;7.608;2022-11-20T08:58:23;11.20;;;5.60;;
73266;SDS011;61495;53.400;7.608;2022-11-20T09:00:48;10.52;;;5.18;;
73266;SDS011;61495;53.400;7.608;2022-11-20T09:03:14;9.43;;;5.07;;
73266;SDS011;61495;53.400;7.608;2022-11-20T09:05:39;11.35;;;5.10;;
73266;SDS011;61495;53.400;7.608;2022-11-20T09:08:05;12.02;;;6.00;;
73266;SDS011;61495;53.400;7.608;2022-11-20T09:10:30;11.52;;;5.78;;
73266;SDS011;61495;53.400;7.608;2022-11-20T09:12:56;12.55;;;5.43;;
73266;SDS011;61495;53.400;7.608;2022-11-20T09:15:21;11.63;;;5.95;;
73266;SDS011;61495;53.400;7.608;2022-11-20T09:17:51;12.60;;;6.03;;
73266;SDS011;61495;53.400;7.608;2022-11-20T09:20:17;12.43;;;6.38;;
73266;SDS011;61495;53.400;7.608;2022-11-20T09:22:42;10.70;;;5.10;;
73266;SDS011;61495;53.400;7.608;2022-11-20T09:25:07;9.52;;;5.32;;
73266;SDS011;61495;53.400;7.608;2022-11-20T09:27:33;12.40;;;6.05;;
73266;SDS011;61495;53.400;7.608;2022-11-20T09:29:58;8.80;;;5.00;;
73266;SDS011;61495;53.400;7.608;2022-11-20T09:32:24;13.60;;;6.10;;
73266;SDS011;61495;53.400;7.608;2022-11-20T09:34:49;11.90;;;5.43;;
73266;SDS011;61495;53.400;7.608;2022-11-20T09:37:14;12.70;;;5.28;;
73266;SDS011;61495;53.400;7.608;2022-11-20T09:39:40;10.10;;;5.82;;
73266;SDS011;61495;53.400;7.608;2022-11-20T09:42:24;11.00;;;5.68;;
73266;SDS011;61495;53.400;7.608;2022-11-20T09:56:00;12.18;;;5.80;;
73266;SDS011;61495;53.400;7.608;2022-11-20T09:58:29;11.98;;;6.13;;
73266;SDS011;61495;53.400;7.608;2022-11-20T10:01:03;11.13;;;5.47;;
73266;SDS011;61495;53.400;7.608;2022-11-20T10:03:37;11.95;;;5.63;;
73266;SDS011;61495;53.400;7.608;2022-11-20T10:06:11;11.73;;;6.03;;
73266;SDS011;61495;53.400;7.608;2022-11-20T10:11:50;11.68;;;5.93;;
73266;SDS011;61495;53.400;7.608;2022-11-20T10:22:13;12.70;;;6.43;;
73266;SDS011;61495;53.400;7.608;2022-11-20T10:30:21;13.50;;;6.32;;
73266;SDS011;61495;53.400;7.608;2022-11-20T10:32:51;11.88;;;6.07;;
73266;SDS011;61495;53.400;7.608;2022-11-20T10:38:01;11.77;;;5.78;;
73266;SDS011;61495;53.400;7.608;2022-11-20T10:43:18;11.55;;;5.55;;
73266;SDS011;61495;53.400;7.608;2022-11-20T10:45:50;10.98;;;5.57;;
73266;SDS011;61495;53.400;7.608;2022-11-20T10:48:23;12.05;;;5.82;;
73266;SDS011;61495;53.400;7.608;2022-11-20T11:00:06;16.23;;;6.32;;
73266;SDS011;61495;53.400;7.608;2022-11-20T11:02:44;9.88;;;5.95;;
73266;SDS011;61495;53.400;7.608;2022-11-20T11:07:54;11.95;;;6.30;;
73266;SDS011;61495;53.400;7.608;2022-11-20T11:10:23;11.10;;;4.95;;
73266;SDS011;61495;53.400;7.608;2022-11-20T11:12:53;11.32;;;5.55;;
73266;SDS011;61495;53.400;7.608;2022-11-20T11:15:29;12.70;;;5.50;;
73266;SDS011;61495;53.400;7.608;2022-11-20T11:18:02;11.63;;;5.38;;
73266;SDS011;61495;53.400;7.608;2022-11-20T11:20:29;11.18;;;5.35;;
73266;SDS011;61495;53.400;7.608;2022-11-20T11:22:55;10.95;;;5.55;;
73266;SDS011;61495;53.400;7.608;2022-11-20T11:25:31;11.45;;;5.88;;
73266;SDS011;61495;53.400;7.608;2022-11-20T11:30:44;11.20;;;5.30;;
73266;SDS011;61495;53.400;7.608;2022-11-20T11:33:20;11.20;;;5.28;;
73266;SDS011;61495;53.400;7.608;2022-11-20T11:38:27;12.02;;;4.95;;
73266;SDS011;61495;53.400;7.608;2022-11-20T11:41:04;8.90;;;4.90;;
73266;SDS011;61495;53.400;7.608;2022-11-20T11:43:32;10.25;;;4.68;;
73266;SDS011;61495;53.400;7.608;2022-11-20T11:46:34;10.25;;;4.72;;
73266;SDS011;61495;53.400;7.608;2022-11-20T11:49:08;9.35;;;4.28;;
73266;SDS011;61495;53.400;7.608;2022-11-20T11:57:26;8.50;;;4.30;;
73266;SDS011;61495;53.400;7.608;2022-11-20T12:00:14;11.90;;;4.53;;
73266;SDS011;61495;53.400;7.608;2022-11-20T12:08:23;9.50;;;4.10;;
73266;SDS011;61495;53.400;7.608;2022-11-20T12:15:59;6.93;;;3.72;;
73266;SDS011;61495;53.400;7.608;2022-11-20T12:18:25;7.07;;;3.60;;
73266;SDS011;61495;53.400;7.608;2022-11-20T12:26:22;8.40;;;4.00;;
73266;SDS011;61495;53.400;7.608;2022-11-20T12:29:06;7.78;;;3.78;;
73266;SDS011;61495;53.400;7.608;2022-11-20T12:34:57;5.75;;;2.75;;
73266;SDS011;61495;53.400;7.608;2022-11-20T12:42:53;7.72;;;3.47;;
73266;SDS011;61495;53.400;7.608;2022-11-20T13:02:27;6.68;;;3.67;;
73266;SDS011;61495;53.400;7.608;2022-11-20T13:05:05;5.82;;;2.83;;
73266;SDS011;61495;53.400;7.608;2022-11-20T13:07:46;6.78;;;2.63;;
73266;SDS011;61495;53.400;7.608;2022-11-20T13:10:19;6.45;;;3.10;;
73266;SDS011;61495;53.400;7.608;2022-11-20T13:12:54;6.50;;;3.15;;
73266;SDS011;61495;53.400;7.608;2022-11-20T13:15:44;6.25;;;2.70;;
73266;SDS011;61495;53.400;7.608;2022-11-20T13:18:19;6.13;;;2.92;;
73266;SDS011;61495;53.400;7.608;2022-11-20T13:20:45;5.60;;;3.05;;
73266;SDS011;61495;53.400;7.608;2022-11-20T13:23:22;7.05;;;3.40;;
73266;SDS011;61495;53.400;7.608;2022-11-20T13:25:50;7.25;;;3.13;;
73266;SDS011;61495;53.400;7.608;2022-11-20T13:30:53;8.23;;;3.80;;
73266;SDS011;61495;53.400;7.608;2022-11-20T13:33:32;8.80;;;3.80;;
73266;SDS011;61495;53.400;7.608;2022-11-20T13:36:07;8.07;;;4.15;;
73266;SDS011;61495;53.400;7.608;2022-11-20T13:38:47;7.13;;;3.60;;
73266;SDS011;61495;53.400;7.608;2022-11-20T13:41:31;7.50;;;3.55;;
73266;SDS011;61495;53.400;7.608;2022-11-20T13:46:37;8.60;;;4.60;;
73266;SDS011;61495;53.400;7.608;2022-11-20T13:49:31;8.60;;;4.15;;
73266;SDS011;61495;53.400;7.608;2022-11-20T13:52:24;11.50;;;5.10;;
73266;SDS011;61495;53.400;7.608;2022-11-20T13:55:02;9.95;;;4.32;;
73266;SDS011;61495;53.400;7.608;2022-11-20T13:57:53;8.30;;;4.18;;
73266;SDS011;61495;53.400;7.608;2022-11-20T14:00:21;8.10;;;4.30;;
73266;SDS011;61495;53.400;7.608;2022-11-20T14:03:05;7.75;;;4.65;;
73266;SDS011;61495;53.400;7.608;2022-11-20T14:05:49;7.68;;;4.20;;
73266;SDS011;61495;53.400;7.608;2022-11-20T14:08:59;9.43;;;4.70;;
73266;SDS011;61495;53.400;7.608;2022-11-20T14:16:31;13.70;;;6.53;;
73266;SDS011;61495;53.400;7.608;2022-11-20T14:19:17;11.27;;;6.15;;
73266;SDS011;61495;53.400;7.608;2022-11-20T14:24:13;10.27;;;5.22;;
73266;SDS011;61495;53.400;7.608;2022-11-20T14:26:44;12.23;;;6.30;;
73266;SDS011;61495;53.400;7.608;2022-11-20T14:29:21;11.20;;;6.03;;
73266;SDS011;61495;53.400;7.608;2022-11-20T14:31:52;10.70;;;5.72;;
73266;SDS011;61495;53.400;7.608;2022-11-20T14:34:23;10.13;;;5.75;;
73266;SDS011;61495;53.400;7.608;2022-11-20T14:36:56;11.65;;;5.13;;
73266;SDS011;61495;53.400;7.608;2022-11-20T14:39:34;9.55;;;4.88;;
73266;SDS011;61495;53.400;7.608;2022-11-20T14:42:00;10.68;;;5.45;;
73266;SDS011;61495;53.400;7.608;2022-11-20T14:44:31;10.98;;;5.63;;
73266;SDS011;61495;53.400;7.608;2022-11-20T14:46:59;9.48;;;5.28;;
73266;SDS011;61495;53.400;7.608;2022-11-20T14:49:26;10.25;;;5.22;;
73266;SDS011;61495;53.400;7.608;2022-11-20T14:52:01;12.20;;;5.38;;
73266;SDS011;61495;53.400;7.608;2022-11-20T14:54:42;9.40;;;4.55;;
73266;SDS011;61495;53.400;7.608;2022-11-20T14:57:29;9.63;;;4.63;;
73266;SDS011;61495;53.400;7.608;2022-11-20T15:02:46;9.52;;;5.20;;
73266;SDS011;61495;53.400;7.608;2022-11-20T15:05:14;14.75;;;5.63;;
73266;SDS011;61495;53.400;7.608;2022-11-20T15:07:42;10.48;;;4.93;;
73266;SDS011;61495;53.400;7.608;2022-11-20T15:12:53;9.88;;;4.75;;
73266;SDS011;61495;53.400;7.608;2022-11-20T15:15:25;9.45;;;5.07;;
73266;SDS011;61495;53.400;7.608;2022-11-20T15:17:56;10.93;;;5.20;;
73266;SDS011;61495;53.400;7.608;2022-11-20T15:20:24;10.73;;;5.10;;
73266;SDS011;61495;53.400;7.608;2022-11-20T15:22:52;9.82;;;5.78;;
73266;SDS011;61495;53.400;7.608;2022-11-20T15:25:17;9.52;;;5.15;;
73266;SDS011;61495;53.400;7.608;2022-11-20T15:27:44;9.13;;;5.30;;
73266;SDS011;61495;53.400;7.608;2022-11-20T15:30:14;10.65;;;4.90;;
73266;SDS011;61495;53.400;7.608;2022-11-20T15:32:42;12.20;;;5.93;;
73266;SDS011;61495;53.400;7.608;2022-11-20T15:35:08;14.05;;;7.22;;
73266;SDS011;61495;53.400;7.608;2022-11-20T15:37:35;12.02;;;6.82;;
73266;SDS011;61495;53.400;7.608;2022-11-20T15:40:00;13.10;;;7.20;;
73266;SDS011;61495;53.400;7.608;2022-11-20T15:42:26;11.70;;;6.45;;
73266;SDS011;61495;53.400;7.608;2022-11-20T15:44:51;12.85;;;6.43;;
73266;SDS011;61495;53.400;7.608;2022-11-20T15:47:17;11.05;;;5.95;;
73266;SDS011;61495;53.400;7.608;2022-11-20T15:49:43;13.85;;;5.63;;
73266;SDS011;61495;53.400;7.608;2022-11-20T15:52:09;10.30;;;6.03;;
73266;SDS011;61495;53.400;7.608;2022-11-20T15:54:35;11.90;;;6.97;;
73266;SDS011;61495;53.400;7.608;2022-11-20T15:57:01;12.80;;;6.95;;
73266;SDS011;61495;53.400;7.608;2022-11-20T15:59:27;14.60;;;7.93;;
73266;SDS011;61495;53.400;7.608;2022-11-20T16:01:53;12.23;;;6.13;;
73266;SDS011;61495;53.400;7.608;2022-11-20T16:04:18;10.13;;;5.57;;
73266;SDS011;61495;53.400;7.608;2022-11-20T16:06:44;12.38;;;5.80;;
73266;SDS011;61495;53.400;7.608;2022-11-20T16:09:09;9.50;;;5.53;;
73266;SDS011;61495;53.400;7.608;2022-11-20T16:11:35;12.95;;;6.55;;
73266;SDS011;61495;53.400;7.608;2022-11-20T16:14:02;12.57;;;7.03;;
73266;SDS011;61495;53.400;7.608;2022-11-20T16:16:46;12.25;;;6.32;;
73266;SDS011;61495;53.400;7.608;2022-11-20T16:19:12;13.15;;;6.25;;
73266;SDS011;61495;53.400;7.608;2022-11-20T16:21:39;10.75;;;6.00;;
73266;SDS011;61495;53.400;7.608;2022-11-20T16:24:07;13.95;;;7.15;;
73266;SDS011;61495;53.400;7.608;2022-11-20T16:26:34;14.95;;;8.35;;
73266;SDS011;61495;53.400;7.608;2022-11-20T16:29:00;16.63;;;8.15;;
73266;SDS011;61495;53.400;7.608;2022-11-20T16:31:27;14.90;;;8.00;;
73266;SDS011;61495;53.400;7.608;2022-11-20T16:33:54;14.43;;;7.75;;
73266;SDS011;61495;53.400;7.608;2022-11-20T16:36:21;18.00;;;10.07;;
73266;SDS011;61495;53.400;7.608;2022-11-20T16:38:51;17.55;;;9.43;;
73266;SDS011;61495;53.400;7.608;2022-11-20T16:41:18;13.68;;;7.38;;
73266;SDS011;61495;53.400;7.608;2022-11-20T16:43:44;14.15;;;7.18;;
73266;SDS011;61495;53.400;7.608;2022-11-20T16:46:11;13.18;;;7.45;;
73266;SDS011;61495;53.400;7.608;2022-11-20T16:48:37;13.65;;;7.15;;
73266;SDS011;61495;53.400;7.608;2022-11-20T16:51:03;15.38;;;7.60;;
73266;SDS011;61495;53.400;7.608;2022-11-20T16:53:33;14.32;;;7.75;;
73266;SDS011;61495;53.400;7.608;2022-11-20T16:56:07;14.32;;;7.47;;
73266;SDS011;61495;53.400;7.608;2022-11-20T16:58:41;17.13;;;7.60;;
73266;SDS011;61495;53.400;7.608;2022-11-20T17:01:11;16.50;;;8.50;;
73266;SDS011;61495;53.400;7.608;2022-11-20T17:03:40;12.20;;;7.30;;
73266;SDS011;61495;53.400;7.608;2022-11-20T17:06:16;15.25;;;8.10;;
73266;SDS011;61495;53.400;7.608;2022-11-20T17:08:44;19.05;;;9.20;;